sensor_id;sensor_type;location;lat;lon;timestamp;P1;durP1;ratioP1;P2;durP2;ratioP2
70367;SDS011;57789;53.868;10.728;2022-11-15T00:00:25;72.43;;;37.80;;
70367;SDS011;57789;53.868;10.728;2022-11-15T00:02:54;77.43;;;35.20;;
70367;SDS011;57789;53.868;10.728;2022-11-15T00:05:20;69.53;;;32.90;;
70367;SDS011;57789;53.868;10.728;2022-11-15T00:07:46;63.03;;;32.60;;
70367;SDS011;57789;53.868;10.728;2022-11-15T00:10:11;62.57;;;32.33;;
70367;SDS011;57789;53.868;10.728;2022-11-15T00:12:37;61.30;;;31.63;;
70367;SDS011;57789;53.868;10.728;2022-11-15T00:15:03;48.37;;;25.97;;
70367;SDS011;57789;53.868;10.728;2022-11-15T00:17:29;66.43;;;33.60;;
70367;SDS011;57789;53.868;10.728;2022-11-15T00:19:55;60.37;;;27.93;;
70367;SDS011;57789;53.868;10.728;2022-11-15T00:22:21;55.83;;;28.03;;
70367;SDS011;57789;53.868;10.728;2022-11-15T00:24:47;56.40;;;27.70;;
70367;SDS011;57789;53.868;10.728;2022-11-15T00:27:12;53.87;;;27.77;;
70367;SDS011;57789;53.868;10.728;2022-11-15T00:29:38;52.10;;;27.90;;
70367;SDS011;57789;53.868;10.728;2022-11-15T00:32:08;55.70;;;26.70;;
70367;SDS011;57789;53.868;10.728;2022-11-15T00:34:36;46.63;;;25.60;;
70367;SDS011;57789;53.868;10.728;2022-11-15T00:37:02;49.20;;;27.17;;
70367;SDS011;57789;53.868;10.728;2022-11-15T00:39:28;48.87;;;24.23;;
70367;SDS011;57789;53.868;10.728;2022-11-15T00:41:53;50.10;;;25.23;;
70367;SDS011;57789;53.868;10.728;2022-11-15T00:44:19;46.90;;;24.63;;
70367;SDS011;57789;53.868;10.728;2022-11-15T00:46:45;45.10;;;23.57;;
70367;SDS011;57789;53.868;10.728;2022-11-15T00:49:10;45.10;;;23.60;;
70367;SDS011;57789;53.868;10.728;2022-11-15T00:51:36;50.07;;;24.93;;
70367;SDS011;57789;53.868;10.728;2022-11-15T00:54:01;50.70;;;26.03;;
70367;SDS011;57789;53.868;10.728;2022-11-15T00:56:27;50.87;;;25.30;;
70367;SDS011;57789;53.868;10.728;2022-11-15T00:58:53;46.90;;;23.87;;
70367;SDS011;57789;53.868;10.728;2022-11-15T01:01:19;43.13;;;25.03;;
70367;SDS011;57789;53.868;10.728;2022-11-15T01:03:44;49.90;;;25.23;;
70367;SDS011;57789;53.868;10.728;2022-11-15T01:06:10;48.40;;;25.10;;
70367;SDS011;57789;53.868;10.728;2022-11-15T01:08:38;43.43;;;23.57;;
70367;SDS011;57789;53.868;10.728;2022-11-15T01:11:06;59.63;;;29.23;;
70367;SDS011;57789;53.868;10.728;2022-11-15T01:13:33;47.70;;;24.57;;
70367;SDS011;57789;53.868;10.728;2022-11-15T01:16:11;66.87;;;34.43;;
70367;SDS011;57789;53.868;10.728;2022-11-15T01:18:38;87.17;;;44.20;;
70367;SDS011;57789;53.868;10.728;2022-11-15T01:21:08;52.80;;;29.10;;
70367;SDS011;57789;53.868;10.728;2022-11-15T01:23:35;109.13;;;53.73;;
70367;SDS011;57789;53.868;10.728;2022-11-15T01:26:02;60.17;;;29.73;;
70367;SDS011;57789;53.868;10.728;2022-11-15T01:28:33;58.03;;;30.80;;
70367;SDS011;57789;53.868;10.728;2022-11-15T01:31:00;50.60;;;26.23;;
70367;SDS011;57789;53.868;10.728;2022-11-15T01:33:27;53.70;;;28.47;;
70367;SDS011;57789;53.868;10.728;2022-11-15T01:35:54;54.37;;;27.40;;
70367;SDS011;57789;53.868;10.728;2022-11-15T01:38:19;73.37;;;32.30;;
70367;SDS011;57789;53.868;10.728;2022-11-15T01:40:45;47.63;;;24.83;;
70367;SDS011;57789;53.868;10.728;2022-11-15T01:43:21;51.07;;;24.90;;
70367;SDS011;57789;53.868;10.728;2022-11-15T01:45:50;50.77;;;27.87;;
70367;SDS011;57789;53.868;10.728;2022-11-15T01:48:22;49.90;;;24.83;;
70367;SDS011;57789;53.868;10.728;2022-11-15T01:50:57;41.50;;;22.93;;
70367;SDS011;57789;53.868;10.728;2022-11-15T01:53:25;102.60;;;47.87;;
70367;SDS011;57789;53.868;10.728;2022-11-15T01:55:52;78.60;;;40.40;;
70367;SDS011;57789;53.868;10.728;2022-11-15T01:58:19;49.30;;;25.63;;
70367;SDS011;57789;53.868;10.728;2022-11-15T02:00:45;87.93;;;46.10;;
70367;SDS011;57789;53.868;10.728;2022-11-15T02:03:12;101.17;;;50.17;;
70367;SDS011;57789;53.868;10.728;2022-11-15T02:05:38;107.23;;;52.40;;
70367;SDS011;57789;53.868;10.728;2022-11-15T02:08:06;63.90;;;32.87;;
70367;SDS011;57789;53.868;10.728;2022-11-15T02:10:32;59.20;;;30.70;;
70367;SDS011;57789;53.868;10.728;2022-11-15T02:12:57;73.20;;;37.17;;
70367;SDS011;57789;53.868;10.728;2022-11-15T02:15:26;52.87;;;28.60;;
70367;SDS011;57789;53.868;10.728;2022-11-15T02:21:13;56.93;;;28.50;;
70367;SDS011;57789;53.868;10.728;2022-11-15T02:32:15;40.00;;;22.10;;
70367;SDS011;57789;53.868;10.728;2022-11-15T02:37:59;40.67;;;23.27;;
70367;SDS011;57789;53.868;10.728;2022-11-15T02:43:09;38.13;;;21.10;;
70367;SDS011;57789;53.868;10.728;2022-11-15T02:46:01;45.90;;;23.63;;
70367;SDS011;57789;53.868;10.728;2022-11-15T02:48:38;42.07;;;19.80;;
70367;SDS011;57789;53.868;10.728;2022-11-15T02:51:04;41.80;;;22.07;;
70367;SDS011;57789;53.868;10.728;2022-11-15T02:53:31;41.33;;;23.00;;
70367;SDS011;57789;53.868;10.728;2022-11-15T02:55:57;37.53;;;21.07;;
70367;SDS011;57789;53.868;10.728;2022-11-15T02:58:46;42.17;;;22.20;;
70367;SDS011;57789;53.868;10.728;2022-11-15T03:01:28;39.20;;;22.27;;
70367;SDS011;57789;53.868;10.728;2022-11-15T03:04:19;36.77;;;21.03;;
70367;SDS011;57789;53.868;10.728;2022-11-15T03:06:59;36.70;;;20.30;;
70367;SDS011;57789;53.868;10.728;2022-11-15T03:09:38;40.37;;;19.63;;
70367;SDS011;57789;53.868;10.728;2022-11-15T03:15:10;36.77;;;21.20;;
70367;SDS011;57789;53.868;10.728;2022-11-15T03:17:49;40.40;;;21.37;;
70367;SDS011;57789;53.868;10.728;2022-11-15T03:20:20;42.13;;;21.83;;
70367;SDS011;57789;53.868;10.728;2022-11-15T03:22:46;37.17;;;20.97;;
70367;SDS011;57789;53.868;10.728;2022-11-15T03:25:19;43.03;;;21.87;;
70367;SDS011;57789;53.868;10.728;2022-11-15T03:27:48;37.40;;;20.53;;
70367;SDS011;57789;53.868;10.728;2022-11-15T03:30:17;40.10;;;20.90;;
70367;SDS011;57789;53.868;10.728;2022-11-15T03:32:46;40.63;;;20.70;;
70367;SDS011;57789;53.868;10.728;2022-11-15T03:35:15;38.47;;;20.23;;
70367;SDS011;57789;53.868;10.728;2022-11-15T03:41:00;44.07;;;23.80;;
70367;SDS011;57789;53.868;10.728;2022-11-15T03:43:47;38.70;;;21.40;;
70367;SDS011;57789;53.868;10.728;2022-11-15T03:49:07;38.07;;;21.13;;
70367;SDS011;57789;53.868;10.728;2022-11-15T03:51:37;40.60;;;20.00;;
70367;SDS011;57789;53.868;10.728;2022-11-15T03:54:04;34.27;;;19.80;;
70367;SDS011;57789;53.868;10.728;2022-11-15T03:56:30;36.63;;;21.13;;
70367;SDS011;57789;53.868;10.728;2022-11-15T03:58:55;34.33;;;19.57;;
70367;SDS011;57789;53.868;10.728;2022-11-15T04:01:21;37.10;;;21.00;;
70367;SDS011;57789;53.868;10.728;2022-11-15T04:03:47;33.70;;;19.27;;
70367;SDS011;57789;53.868;10.728;2022-11-15T04:06:12;34.37;;;20.27;;
70367;SDS011;57789;53.868;10.728;2022-11-15T04:08:38;38.03;;;20.07;;
70367;SDS011;57789;53.868;10.728;2022-11-15T04:11:04;33.93;;;18.37;;
70367;SDS011;57789;53.868;10.728;2022-11-15T04:13:29;33.77;;;19.10;;
70367;SDS011;57789;53.868;10.728;2022-11-15T04:15:55;39.93;;;19.07;;
70367;SDS011;57789;53.868;10.728;2022-11-15T04:18:20;36.37;;;19.90;;
70367;SDS011;57789;53.868;10.728;2022-11-15T04:20:46;34.30;;;19.67;;
70367;SDS011;57789;53.868;10.728;2022-11-15T04:23:30;41.93;;;20.77;;
70367;SDS011;57789;53.868;10.728;2022-11-15T04:26:15;37.90;;;19.20;;
70367;SDS011;57789;53.868;10.728;2022-11-15T04:28:46;30.87;;;16.80;;
70367;SDS011;57789;53.868;10.728;2022-11-15T04:31:34;30.53;;;17.40;;
70367;SDS011;57789;53.868;10.728;2022-11-15T04:33:59;33.33;;;19.10;;
70367;SDS011;57789;53.868;10.728;2022-11-15T04:36:25;34.40;;;19.13;;
70367;SDS011;57789;53.868;10.728;2022-11-15T04:39:09;37.90;;;19.80;;
70367;SDS011;57789;53.868;10.728;2022-11-15T04:41:35;32.80;;;18.83;;
70367;SDS011;57789;53.868;10.728;2022-11-15T04:44:01;35.97;;;19.60;;
70367;SDS011;57789;53.868;10.728;2022-11-15T04:46:27;28.53;;;16.87;;
70367;SDS011;57789;53.868;10.728;2022-11-15T04:48:52;33.43;;;18.57;;
70367;SDS011;57789;53.868;10.728;2022-11-15T04:51:19;33.90;;;17.50;;
70367;SDS011;57789;53.868;10.728;2022-11-15T04:53:45;29.93;;;17.63;;
70367;SDS011;57789;53.868;10.728;2022-11-15T04:56:10;33.53;;;18.60;;
70367;SDS011;57789;53.868;10.728;2022-11-15T04:58:36;36.50;;;20.07;;
70367;SDS011;57789;53.868;10.728;2022-11-15T05:01:07;34.27;;;20.10;;
70367;SDS011;57789;53.868;10.728;2022-11-15T05:03:33;34.53;;;19.53;;
70367;SDS011;57789;53.868;10.728;2022-11-15T05:06:17;32.37;;;18.60;;
70367;SDS011;57789;53.868;10.728;2022-11-15T05:08:43;37.87;;;17.23;;
70367;SDS011;57789;53.868;10.728;2022-11-15T05:11:08;32.63;;;17.63;;
70367;SDS011;57789;53.868;10.728;2022-11-15T05:13:34;28.43;;;17.37;;
70367;SDS011;57789;53.868;10.728;2022-11-15T05:15:59;32.20;;;18.60;;
70367;SDS011;57789;53.868;10.728;2022-11-15T05:18:25;31.50;;;18.20;;
70367;SDS011;57789;53.868;10.728;2022-11-15T05:20:51;30.93;;;18.47;;
70367;SDS011;57789;53.868;10.728;2022-11-15T05:23:16;34.13;;;18.80;;
70367;SDS011;57789;53.868;10.728;2022-11-15T05:25:42;30.90;;;17.13;;
70367;SDS011;57789;53.868;10.728;2022-11-15T05:28:08;28.70;;;17.03;;
70367;SDS011;57789;53.868;10.728;2022-11-15T05:30:33;31.90;;;18.83;;
70367;SDS011;57789;53.868;10.728;2022-11-15T05:32:59;34.67;;;19.10;;
70367;SDS011;57789;53.868;10.728;2022-11-15T05:35:36;28.37;;;17.87;;
70367;SDS011;57789;53.868;10.728;2022-11-15T05:38:05;31.50;;;17.43;;
70367;SDS011;57789;53.868;10.728;2022-11-15T05:40:30;31.33;;;18.03;;
70367;SDS011;57789;53.868;10.728;2022-11-15T05:42:57;28.50;;;16.63;;
70367;SDS011;57789;53.868;10.728;2022-11-15T05:45:25;28.43;;;18.20;;
70367;SDS011;57789;53.868;10.728;2022-11-15T05:47:51;31.67;;;18.03;;
70367;SDS011;57789;53.868;10.728;2022-11-15T05:50:19;33.47;;;20.30;;
70367;SDS011;57789;53.868;10.728;2022-11-15T05:52:45;31.80;;;17.53;;
70367;SDS011;57789;53.868;10.728;2022-11-15T05:55:11;26.50;;;17.20;;
70367;SDS011;57789;53.868;10.728;2022-11-15T05:57:37;31.13;;;15.90;;
70367;SDS011;57789;53.868;10.728;2022-11-15T06:00:03;31.43;;;16.50;;
70367;SDS011;57789;53.868;10.728;2022-11-15T06:02:30;32.93;;;17.20;;
70367;SDS011;57789;53.868;10.728;2022-11-15T06:04:55;31.30;;;17.57;;
70367;SDS011;57789;53.868;10.728;2022-11-15T06:07:21;27.40;;;16.40;;
70367;SDS011;57789;53.868;10.728;2022-11-15T06:09:47;31.27;;;18.10;;
70367;SDS011;57789;53.868;10.728;2022-11-15T06:12:13;32.43;;;16.43;;
70367;SDS011;57789;53.868;10.728;2022-11-15T06:14:38;28.63;;;17.93;;
70367;SDS011;57789;53.868;10.728;2022-11-15T06:17:04;31.23;;;17.37;;
70367;SDS011;57789;53.868;10.728;2022-11-15T06:19:30;29.90;;;18.27;;
70367;SDS011;57789;53.868;10.728;2022-11-15T06:21:58;27.10;;;15.93;;
70367;SDS011;57789;53.868;10.728;2022-11-15T06:24:24;28.00;;;15.53;;
70367;SDS011;57789;53.868;10.728;2022-11-15T06:26:50;31.53;;;17.20;;
70367;SDS011;57789;53.868;10.728;2022-11-15T06:29:16;25.43;;;15.57;;
70367;SDS011;57789;53.868;10.728;2022-11-15T06:31:41;28.93;;;16.93;;
70367;SDS011;57789;53.868;10.728;2022-11-15T06:34:07;30.23;;;17.80;;
70367;SDS011;57789;53.868;10.728;2022-11-15T06:36:36;24.93;;;14.60;;
70367;SDS011;57789;53.868;10.728;2022-11-15T06:39:03;30.77;;;16.20;;
70367;SDS011;57789;53.868;10.728;2022-11-15T06:41:29;27.17;;;15.17;;
70367;SDS011;57789;53.868;10.728;2022-11-15T06:43:54;26.20;;;15.57;;
70367;SDS011;57789;53.868;10.728;2022-11-15T06:46:21;23.40;;;15.83;;
70367;SDS011;57789;53.868;10.728;2022-11-15T06:48:47;25.93;;;17.20;;
70367;SDS011;57789;53.868;10.728;2022-11-15T06:51:15;26.73;;;16.63;;
70367;SDS011;57789;53.868;10.728;2022-11-15T06:53:40;24.17;;;15.43;;
70367;SDS011;57789;53.868;10.728;2022-11-15T06:56:06;30.00;;;17.60;;
70367;SDS011;57789;53.868;10.728;2022-11-15T06:58:33;28.10;;;16.80;;
70367;SDS011;57789;53.868;10.728;2022-11-15T07:01:03;27.07;;;16.53;;
70367;SDS011;57789;53.868;10.728;2022-11-15T07:03:31;27.20;;;15.23;;
70367;SDS011;57789;53.868;10.728;2022-11-15T07:05:58;24.27;;;15.70;;
70367;SDS011;57789;53.868;10.728;2022-11-15T07:08:26;26.30;;;16.70;;
70367;SDS011;57789;53.868;10.728;2022-11-15T07:10:53;28.27;;;16.07;;
70367;SDS011;57789;53.868;10.728;2022-11-15T07:13:19;24.37;;;16.10;;
70367;SDS011;57789;53.868;10.728;2022-11-15T07:15:48;24.83;;;15.50;;
70367;SDS011;57789;53.868;10.728;2022-11-15T07:18:14;29.80;;;17.00;;
70367;SDS011;57789;53.868;10.728;2022-11-15T07:20:40;38.57;;;16.87;;
70367;SDS011;57789;53.868;10.728;2022-11-15T07:23:05;31.23;;;17.50;;
70367;SDS011;57789;53.868;10.728;2022-11-15T07:25:32;25.20;;;15.07;;
70367;SDS011;57789;53.868;10.728;2022-11-15T07:28:00;28.67;;;14.23;;
70367;SDS011;57789;53.868;10.728;2022-11-15T07:30:26;23.27;;;15.20;;
70367;SDS011;57789;53.868;10.728;2022-11-15T07:35:22;27.50;;;15.87;;
70367;SDS011;57789;53.868;10.728;2022-11-15T07:37:59;23.07;;;15.40;;
70367;SDS011;57789;53.868;10.728;2022-11-15T07:40:26;29.90;;;18.23;;
70367;SDS011;57789;53.868;10.728;2022-11-15T07:43:00;24.80;;;15.13;;
70367;SDS011;57789;53.868;10.728;2022-11-15T07:45:26;23.60;;;14.40;;
70367;SDS011;57789;53.868;10.728;2022-11-15T07:47:52;25.57;;;14.40;;
70367;SDS011;57789;53.868;10.728;2022-11-15T07:50:19;28.03;;;17.03;;
70367;SDS011;57789;53.868;10.728;2022-11-15T07:52:45;25.40;;;14.67;;
70367;SDS011;57789;53.868;10.728;2022-11-15T07:55:10;26.90;;;16.53;;
70367;SDS011;57789;53.868;10.728;2022-11-15T07:57:36;25.47;;;15.00;;
70367;SDS011;57789;53.868;10.728;2022-11-15T08:00:03;26.80;;;15.63;;
70367;SDS011;57789;53.868;10.728;2022-11-15T08:02:30;25.80;;;16.50;;
70367;SDS011;57789;53.868;10.728;2022-11-15T08:04:56;25.17;;;15.33;;
70367;SDS011;57789;53.868;10.728;2022-11-15T08:07:22;21.87;;;14.70;;
70367;SDS011;57789;53.868;10.728;2022-11-15T08:09:47;20.53;;;13.63;;
70367;SDS011;57789;53.868;10.728;2022-11-15T08:12:14;28.03;;;15.37;;
70367;SDS011;57789;53.868;10.728;2022-11-15T08:14:39;25.87;;;16.30;;
70367;SDS011;57789;53.868;10.728;2022-11-15T08:17:05;21.87;;;14.53;;
70367;SDS011;57789;53.868;10.728;2022-11-15T08:19:31;29.20;;;15.30;;
70367;SDS011;57789;53.868;10.728;2022-11-15T08:21:56;25.73;;;14.20;;
70367;SDS011;57789;53.868;10.728;2022-11-15T08:24:22;25.40;;;15.03;;
70367;SDS011;57789;53.868;10.728;2022-11-15T08:26:48;26.70;;;14.93;;
70367;SDS011;57789;53.868;10.728;2022-11-15T08:29:13;26.40;;;14.50;;
70367;SDS011;57789;53.868;10.728;2022-11-15T08:31:39;22.73;;;14.20;;
70367;SDS011;57789;53.868;10.728;2022-11-15T08:34:05;27.57;;;15.70;;
70367;SDS011;57789;53.868;10.728;2022-11-15T08:36:31;21.73;;;13.50;;
70367;SDS011;57789;53.868;10.728;2022-11-15T08:38:57;23.13;;;14.50;;
70367;SDS011;57789;53.868;10.728;2022-11-15T08:41:27;21.50;;;14.17;;
70367;SDS011;57789;53.868;10.728;2022-11-15T08:43:55;19.10;;;12.47;;
70367;SDS011;57789;53.868;10.728;2022-11-15T08:46:21;29.47;;;15.20;;
70367;SDS011;57789;53.868;10.728;2022-11-15T08:48:47;19.57;;;13.23;;
70367;SDS011;57789;53.868;10.728;2022-11-15T08:51:19;21.57;;;13.00;;
70367;SDS011;57789;53.868;10.728;2022-11-15T08:53:45;25.37;;;14.93;;
70367;SDS011;57789;53.868;10.728;2022-11-15T08:56:12;28.40;;;14.50;;
70367;SDS011;57789;53.868;10.728;2022-11-15T08:58:39;24.87;;;14.30;;
70367;SDS011;57789;53.868;10.728;2022-11-15T09:01:05;21.73;;;13.90;;
70367;SDS011;57789;53.868;10.728;2022-11-15T09:03:31;20.10;;;12.70;;
70367;SDS011;57789;53.868;10.728;2022-11-15T09:05:57;21.07;;;12.33;;
70367;SDS011;57789;53.868;10.728;2022-11-15T09:08:24;23.10;;;13.93;;
70367;SDS011;57789;53.868;10.728;2022-11-15T09:10:51;17.97;;;12.20;;
70367;SDS011;57789;53.868;10.728;2022-11-15T09:13:16;21.20;;;13.67;;
70367;SDS011;57789;53.868;10.728;2022-11-15T09:15:42;19.33;;;11.93;;
70367;SDS011;57789;53.868;10.728;2022-11-15T09:18:08;22.70;;;13.63;;
70367;SDS011;57789;53.868;10.728;2022-11-15T09:20:33;22.53;;;12.83;;
70367;SDS011;57789;53.868;10.728;2022-11-15T09:23:03;17.17;;;12.07;;
70367;SDS011;57789;53.868;10.728;2022-11-15T09:25:29;20.23;;;13.00;;
70367;SDS011;57789;53.868;10.728;2022-11-15T09:27:55;23.73;;;13.73;;
70367;SDS011;57789;53.868;10.728;2022-11-15T09:30:22;18.33;;;12.90;;
70367;SDS011;57789;53.868;10.728;2022-11-15T09:32:48;21.87;;;12.83;;
70367;SDS011;57789;53.868;10.728;2022-11-15T09:35:14;26.53;;;13.43;;
70367;SDS011;57789;53.868;10.728;2022-11-15T09:37:40;18.17;;;12.33;;
70367;SDS011;57789;53.868;10.728;2022-11-15T09:40:06;23.63;;;13.00;;
70367;SDS011;57789;53.868;10.728;2022-11-15T09:45:15;26.87;;;15.10;;
70367;SDS011;57789;53.868;10.728;2022-11-15T09:50:55;22.00;;;12.20;;
70367;SDS011;57789;53.868;10.728;2022-11-15T09:53:29;24.37;;;13.70;;
70367;SDS011;57789;53.868;10.728;2022-11-15T09:56:05;36.60;;;19.83;;
70367;SDS011;57789;53.868;10.728;2022-11-15T09:58:59;27.77;;;18.27;;
70367;SDS011;57789;53.868;10.728;2022-11-15T10:01:59;28.27;;;16.87;;
70367;SDS011;57789;53.868;10.728;2022-11-15T10:04:33;58.03;;;29.13;;
70367;SDS011;57789;53.868;10.728;2022-11-15T10:09:33;30.17;;;18.03;;
70367;SDS011;57789;53.868;10.728;2022-11-15T10:12:06;19.80;;;13.50;;
70367;SDS011;57789;53.868;10.728;2022-11-15T10:14:33;33.47;;;17.50;;
70367;SDS011;57789;53.868;10.728;2022-11-15T10:20:10;27.43;;;17.43;;
70367;SDS011;57789;53.868;10.728;2022-11-15T10:22:45;31.00;;;18.10;;
70367;SDS011;57789;53.868;10.728;2022-11-15T10:25:29;30.47;;;19.57;;
70367;SDS011;57789;53.868;10.728;2022-11-15T10:27:58;24.90;;;16.10;;
70367;SDS011;57789;53.868;10.728;2022-11-15T10:30:29;35.03;;;19.30;;
70367;SDS011;57789;53.868;10.728;2022-11-15T10:32:58;18.07;;;11.90;;
70367;SDS011;57789;53.868;10.728;2022-11-15T10:41:16;50.53;;;30.57;;
70367;SDS011;57789;53.868;10.728;2022-11-15T10:43:45;32.23;;;19.80;;
70367;SDS011;57789;53.868;10.728;2022-11-15T10:46:42;27.30;;;17.47;;
70367;SDS011;57789;53.868;10.728;2022-11-15T10:49:18;23.63;;;13.47;;
70367;SDS011;57789;53.868;10.728;2022-11-15T10:51:49;51.80;;;31.20;;
70367;SDS011;57789;53.868;10.728;2022-11-15T10:56:53;18.47;;;12.43;;
70367;SDS011;57789;53.868;10.728;2022-11-15T10:59:26;26.63;;;13.50;;
70367;SDS011;57789;53.868;10.728;2022-11-15T11:01:56;16.43;;;11.80;;
70367;SDS011;57789;53.868;10.728;2022-11-15T11:04:22;29.80;;;17.63;;
70367;SDS011;57789;53.868;10.728;2022-11-15T11:06:53;26.97;;;16.40;;
70367;SDS011;57789;53.868;10.728;2022-11-15T11:09:36;28.60;;;18.10;;
70367;SDS011;57789;53.868;10.728;2022-11-15T11:12:04;18.50;;;12.70;;
70367;SDS011;57789;53.868;10.728;2022-11-15T11:14:32;15.97;;;10.87;;
70367;SDS011;57789;53.868;10.728;2022-11-15T11:22:29;26.40;;;16.27;;
70367;SDS011;57789;53.868;10.728;2022-11-15T11:30:17;20.97;;;13.10;;
70367;SDS011;57789;53.868;10.728;2022-11-15T11:43:59;25.53;;;15.30;;
70367;SDS011;57789;53.868;10.728;2022-11-15T11:49:30;43.43;;;22.43;;
70367;SDS011;57789;53.868;10.728;2022-11-15T11:52:08;19.97;;;12.63;;
70367;SDS011;57789;53.868;10.728;2022-11-15T11:55:02;30.03;;;18.13;;
70367;SDS011;57789;53.868;10.728;2022-11-15T11:57:53;21.80;;;14.73;;
70367;SDS011;57789;53.868;10.728;2022-11-15T12:00:24;24.00;;;14.23;;
70367;SDS011;57789;53.868;10.728;2022-11-15T12:03:12;25.33;;;15.50;;
70367;SDS011;57789;53.868;10.728;2022-11-15T12:05:51;16.67;;;11.90;;
70367;SDS011;57789;53.868;10.728;2022-11-15T12:11:24;24.20;;;15.80;;
70367;SDS011;57789;53.868;10.728;2022-11-15T12:14:04;26.20;;;16.50;;
70367;SDS011;57789;53.868;10.728;2022-11-15T12:16:36;60.97;;;34.53;;
70367;SDS011;57789;53.868;10.728;2022-11-15T12:19:04;54.00;;;33.27;;
70367;SDS011;57789;53.868;10.728;2022-11-15T12:21:39;26.27;;;16.27;;
70367;SDS011;57789;53.868;10.728;2022-11-15T12:27:05;18.50;;;11.13;;
70367;SDS011;57789;53.868;10.728;2022-11-15T12:29:48;54.70;;;34.03;;
70367;SDS011;57789;53.868;10.728;2022-11-15T12:32:29;48.37;;;29.97;;
70367;SDS011;57789;53.868;10.728;2022-11-15T12:34:57;36.27;;;21.60;;
70367;SDS011;57789;53.868;10.728;2022-11-15T12:42:35;19.87;;;12.23;;
70367;SDS011;57789;53.868;10.728;2022-11-15T12:58:46;16.30;;;9.23;;
70367;SDS011;57789;53.868;10.728;2022-11-15T13:14:52;29.50;;;19.50;;
70367;SDS011;57789;53.868;10.728;2022-11-15T13:20:28;26.73;;;17.43;;
70367;SDS011;57789;53.868;10.728;2022-11-15T13:25:37;26.43;;;16.20;;
70367;SDS011;57789;53.868;10.728;2022-11-15T13:30:48;39.77;;;25.00;;
70367;SDS011;57789;53.868;10.728;2022-11-15T13:35:58;27.93;;;16.10;;
70367;SDS011;57789;53.868;10.728;2022-11-15T13:38:28;30.53;;;19.30;;
70367;SDS011;57789;53.868;10.728;2022-11-15T13:40:54;34.70;;;20.30;;
70367;SDS011;57789;53.868;10.728;2022-11-15T13:48:42;17.70;;;12.07;;
70367;SDS011;57789;53.868;10.728;2022-11-15T13:53:48;15.93;;;10.27;;
70367;SDS011;57789;53.868;10.728;2022-11-15T13:56:19;14.77;;;9.00;;
70367;SDS011;57789;53.868;10.728;2022-11-15T13:58:46;24.33;;;13.80;;
70367;SDS011;57789;53.868;10.728;2022-11-15T14:01:16;20.70;;;10.70;;
70367;SDS011;57789;53.868;10.728;2022-11-15T14:03:55;60.53;;;35.90;;
70367;SDS011;57789;53.868;10.728;2022-11-15T14:06:23;67.97;;;40.57;;
70367;SDS011;57789;53.868;10.728;2022-11-15T14:11:29;32.57;;;20.73;;
70367;SDS011;57789;53.868;10.728;2022-11-15T14:14:00;29.40;;;19.40;;
70367;SDS011;57789;53.868;10.728;2022-11-15T14:16:42;27.67;;;17.43;;
70367;SDS011;57789;53.868;10.728;2022-11-15T14:19:10;15.37;;;10.63;;
70367;SDS011;57789;53.868;10.728;2022-11-15T14:24:46;24.57;;;16.10;;
70367;SDS011;57789;53.868;10.728;2022-11-15T14:27:29;35.77;;;22.13;;
70367;SDS011;57789;53.868;10.728;2022-11-15T14:29:55;20.20;;;13.30;;
70367;SDS011;57789;53.868;10.728;2022-11-15T14:32:22;35.20;;;21.50;;
70367;SDS011;57789;53.868;10.728;2022-11-15T14:34:56;39.33;;;24.60;;
70367;SDS011;57789;53.868;10.728;2022-11-15T14:39:51;27.40;;;16.70;;
70367;SDS011;57789;53.868;10.728;2022-11-15T14:42:18;16.40;;;12.40;;
70367;SDS011;57789;53.868;10.728;2022-11-15T14:44:44;39.20;;;24.63;;
70367;SDS011;57789;53.868;10.728;2022-11-15T14:47:10;22.90;;;14.60;;
70367;SDS011;57789;53.868;10.728;2022-11-15T14:49:36;23.00;;;15.07;;
70367;SDS011;57789;53.868;10.728;2022-11-15T14:52:02;22.70;;;16.03;;
70367;SDS011;57789;53.868;10.728;2022-11-15T14:54:30;16.23;;;11.40;;
70367;SDS011;57789;53.868;10.728;2022-11-15T14:56:55;17.10;;;12.20;;
70367;SDS011;57789;53.868;10.728;2022-11-15T14:59:21;22.90;;;14.50;;
70367;SDS011;57789;53.868;10.728;2022-11-15T15:01:50;22.57;;;14.17;;
70367;SDS011;57789;53.868;10.728;2022-11-15T15:04:15;25.17;;;13.00;;
70367;SDS011;57789;53.868;10.728;2022-11-15T15:06:41;25.43;;;14.23;;
70367;SDS011;57789;53.868;10.728;2022-11-15T15:09:07;17.73;;;9.10;;
70367;SDS011;57789;53.868;10.728;2022-11-15T15:11:32;15.80;;;9.77;;
70367;SDS011;57789;53.868;10.728;2022-11-15T15:13:58;12.50;;;8.20;;
70367;SDS011;57789;53.868;10.728;2022-11-15T15:16:26;14.40;;;9.80;;
70367;SDS011;57789;53.868;10.728;2022-11-15T15:19:12;19.60;;;11.50;;
70367;SDS011;57789;53.868;10.728;2022-11-15T15:21:43;15.30;;;11.07;;
70367;SDS011;57789;53.868;10.728;2022-11-15T15:24:15;21.67;;;10.80;;
70367;SDS011;57789;53.868;10.728;2022-11-15T15:26:41;20.53;;;13.07;;
70367;SDS011;57789;53.868;10.728;2022-11-15T15:29:08;17.13;;;11.60;;
70367;SDS011;57789;53.868;10.728;2022-11-15T15:31:34;15.23;;;10.47;;
70367;SDS011;57789;53.868;10.728;2022-11-15T15:34:00;17.13;;;10.70;;
70367;SDS011;57789;53.868;10.728;2022-11-15T15:36:26;15.50;;;10.30;;
70367;SDS011;57789;53.868;10.728;2022-11-15T15:38:51;16.27;;;10.00;;
70367;SDS011;57789;53.868;10.728;2022-11-15T15:41:17;16.73;;;10.73;;
70367;SDS011;57789;53.868;10.728;2022-11-15T15:43:43;16.17;;;9.70;;
70367;SDS011;57789;53.868;10.728;2022-11-15T15:46:18;16.83;;;9.50;;
70367;SDS011;57789;53.868;10.728;2022-11-15T15:48:45;15.90;;;10.83;;
70367;SDS011;57789;53.868;10.728;2022-11-15T15:51:11;15.80;;;10.30;;
70367;SDS011;57789;53.868;10.728;2022-11-15T15:53:37;17.00;;;11.23;;
70367;SDS011;57789;53.868;10.728;2022-11-15T15:56:15;16.47;;;10.03;;
70367;SDS011;57789;53.868;10.728;2022-11-15T15:58:41;18.20;;;11.77;;
70367;SDS011;57789;53.868;10.728;2022-11-15T16:01:06;20.73;;;12.97;;
70367;SDS011;57789;53.868;10.728;2022-11-15T16:03:32;17.47;;;12.20;;
70367;SDS011;57789;53.868;10.728;2022-11-15T16:05:58;20.60;;;10.97;;
70367;SDS011;57789;53.868;10.728;2022-11-15T16:08:23;18.20;;;11.27;;
70367;SDS011;57789;53.868;10.728;2022-11-15T16:10:51;22.03;;;12.50;;
70367;SDS011;57789;53.868;10.728;2022-11-15T16:13:17;18.53;;;13.33;;
70367;SDS011;57789;53.868;10.728;2022-11-15T16:15:43;20.30;;;11.40;;
70367;SDS011;57789;53.868;10.728;2022-11-15T16:18:12;22.33;;;13.20;;
70367;SDS011;57789;53.868;10.728;2022-11-15T16:20:42;20.50;;;13.00;;
70367;SDS011;57789;53.868;10.728;2022-11-15T16:23:10;21.50;;;12.77;;
70367;SDS011;57789;53.868;10.728;2022-11-15T16:25:47;26.77;;;14.00;;
70367;SDS011;57789;53.868;10.728;2022-11-15T16:30:59;20.30;;;12.90;;
70367;SDS011;57789;53.868;10.728;2022-11-15T16:33:25;21.27;;;13.43;;
70367;SDS011;57789;53.868;10.728;2022-11-15T16:35:50;17.40;;;11.93;;
70367;SDS011;57789;53.868;10.728;2022-11-15T16:38:16;20.00;;;12.87;;
70367;SDS011;57789;53.868;10.728;2022-11-15T16:40:42;22.10;;;14.10;;